Time;durP1;ratioP1;P1;durP2;ratioP2;P2;SDS_P1;SDS_P2;PMS_P1;PMS_P2;Temp;Humidity;BMP_temperature;BMP_pressure;BME280_temperature;BME280_humidity;BME280_pressure;Samples;Min_cycle;Max_cycle;Signal;HPM_P1;HPM_P2
2021/05/22 00:00:03;;;;;;;3.50;3.17;;;10.80;92.60;;;;;;5048009;28;20716;-77
2021/05/22 00:02:28;;;;;;;3.47;3.22;;;10.80;92.80;;;;;;5050202;28;20175;-78
2021/05/22 00:04:54;;;;;;;3.42;2.90;;;10.70;92.50;;;;;;5049793;28;20755;-78
2021/05/22 00:07:21;;;;;;;3.67;3.00;;;10.70;92.40;;;;;;5049248;28;20655;-76
2021/05/22 00:09:47;;;;;;;2.63;2.53;;;10.70;92.20;;;;;;5049153;28;20272;-74
2021/05/22 00:12:13;;;;;;;3.40;3.10;;;10.60;92.20;;;;;;5050676;28;20229;-75
2021/05/22 00:14:40;;;;;;;3.10;3.00;;;10.60;92.10;;;;;;5050092;28;20587;-75
2021/05/22 00:17:06;;;;;;;3.13;2.78;;;10.60;92.00;;;;;;5053885;28;20230;-74
2021/05/22 00:19:31;;;;;;;3.38;3.15;;;10.50;92.10;;;;;;5050709;28;20771;-74
2021/05/22 00:21:57;;;;;;;3.40;3.15;;;10.50;92.50;;;;;;5050333;28;20187;-75
2021/05/22 00:24:23;;;;;;;3.10;2.90;;;10.40;92.60;;;;;;5052758;28;20183;-75
2021/05/22 00:26:49;;;;;;;2.67;2.57;;;10.40;92.70;;;;;;5053473;28;20234;-74
2021/05/22 00:29:14;;;;;;;2.95;2.85;;;10.40;92.70;;;;;;5050658;28;20657;-76
2021/05/22 00:31:40;;;;;;;3.90;2.97;;;10.30;93.00;;;;;;5053096;28;20235;-76
2021/05/22 00:34:06;;;;;;;2.97;2.77;;;10.30;92.90;;;;;;5053404;28;20292;-76
2021/05/22 00:36:32;;;;;;;2.83;2.73;;;10.30;92.80;;;;;;5054535;28;20219;-76
2021/05/22 00:38:57;;;;;;;2.57;2.47;;;10.30;92.90;;;;;;5058816;28;20384;-76
2021/05/22 00:41:23;;;;;;;7.30;2.50;;;10.20;93.20;;;;;;5055922;28;20201;-76
2021/05/22 00:43:49;;;;;;;3.63;3.10;;;10.20;93.40;;;;;;5055002;28;20175;-76
2021/05/22 00:46:15;;;;;;;3.67;2.57;;;10.10;93.60;;;;;;5049613;28;20279;-76
2021/05/22 00:48:41;;;;;;;3.13;2.93;;;10.10;93.80;;;;;;5049530;28;20180;-76
2021/05/22 00:51:07;;;;;;;3.47;3.13;;;10.10;94.00;;;;;;5049716;28;20180;-76
2021/05/22 00:53:33;;;;;;;2.67;2.47;;;10.00;93.90;;;;;;5051007;28;20522;-75
2021/05/22 00:56:02;;;;;;;2.70;2.50;;;10.00;94.00;;;;;;5044734;28;20238;-76
2021/05/22 00:58:28;;;;;;;2.27;2.13;;;9.90;93.80;;;;;;5048863;28;20207;-76
2021/05/22 01:00:59;;;;;;;3.20;3.00;;;9.90;93.90;;;;;;5047712;28;20249;-76
2021/05/22 01:03:34;;;;;;;2.97;2.73;;;9.90;93.90;;;;;;5047752;28;20192;-76
2021/05/22 01:06:14;;;;;;;9.50;3.20;;;9.80;93.80;;;;;;5045558;28;20194;-76
2021/05/22 01:08:45;;;;;;;2.93;2.50;;;9.80;93.80;;;;;;5049056;28;20183;-77
2021/05/22 01:11:18;;;;;;;6.53;3.13;;;9.80;94.10;;;;;;5043524;28;20193;-76
2021/05/22 01:13:52;;;;;;;3.07;2.80;;;9.70;94.20;;;;;;5046787;28;20190;-76
2021/05/22 01:16:21;;;;;;;2.73;2.53;;;9.70;94.30;;;;;;5045256;28;20218;-76
2021/05/22 01:18:47;;;;;;;2.63;2.53;;;9.70;94.30;;;;;;5048364;28;20180;-77
2021/05/22 01:21:14;;;;;;;4.33;2.40;;;9.70;94.20;;;;;;5048544;28;20191;-76
2021/05/22 01:23:44;;;;;;;2.70;2.50;;;9.70;93.90;;;;;;5047477;28;20180;-76
2021/05/22 01:26:12;;;;;;;3.43;2.33;;;9.60;94.10;;;;;;5047073;28;20187;-76
2021/05/22 01:28:39;;;;;;;3.83;3.07;;;9.60;94.10;;;;;;5052402;28;20260;-76
2021/05/22 01:31:07;;;;;;;5.90;2.97;;;9.60;94.20;;;;;;5047050;28;20179;-76
2021/05/22 01:33:34;;;;;;;4.17;3.40;;;9.60;94.20;;;;;;5048192;28;20199;-76
2021/05/22 01:36:00;;;;;;;2.40;2.30;;;9.60;94.20;;;;;;5050435;28;20215;-76
2021/05/22 01:38:25;;;;;;;2.57;2.47;;;9.50;94.20;;;;;;5044226;28;20222;-76
2021/05/22 01:40:52;;;;;;;3.13;2.93;;;9.50;94.20;;;;;;5048025;28;20250;-76
2021/05/22 01:43:21;;;;;;;4.27;2.50;;;9.50;94.50;;;;;;5050105;28;20184;-76
2021/05/22 01:45:51;;;;;;;7.10;3.10;;;9.50;95.10;;;;;;5052244;28;20191;-76
2021/05/22 01:48:19;;;;;;;2.93;2.80;;;9.50;95.00;;;;;;5045471;28;20181;-76
2021/05/22 01:51:23;;;;;;;3.77;3.50;;;9.50;95.00;;;;;;5051921;28;20261;-76
2021/05/22 01:53:49;;;;;;;3.57;3.27;;;9.40;95.10;;;;;;4999139;28;20188;-76
2021/05/22 01:56:18;;;;;;;2.90;2.70;;;9.40;95.60;;;;;;5002763;28;20221;-77
2021/05/22 01:58:47;;;;;;;3.77;3.47;;;9.40;95.60;;;;;;5001794;28;20185;-77
2021/05/22 02:01:13;;;;;;;3.10;2.90;;;9.40;95.80;;;;;;5001896;28;20204;-76
2021/05/22 02:03:46;;;;;;;3.60;3.10;;;9.40;95.70;;;;;;5003778;28;20695;-77
2021/05/22 02:06:18;;;;;;;3.60;3.27;;;9.30;95.70;;;;;;5002882;28;20207;-76
2021/05/22 02:08:46;;;;;;;3.30;3.10;;;9.30;95.50;;;;;;5004510;28;20195;-77
2021/05/22 02:11:13;;;;;;;3.47;3.17;;;9.30;95.50;;;;;;5013597;28;20200;-77
2021/05/22 02:13:41;;;;;;;3.90;2.87;;;9.30;95.50;;;;;;5015690;28;20195;-74
2021/05/22 02:16:10;;;;;;;3.63;3.33;;;9.20;95.40;;;;;;5015387;28;20290;-77
2021/05/22 02:18:36;;;;;;;3.50;3.20;;;9.20;95.60;;;;;;5016350;28;20281;-77
2021/05/22 02:21:04;;;;;;;5.03;3.27;;;9.20;95.60;;;;;;5000786;28;20181;-75
2021/05/22 02:23:32;;;;;;;3.00;2.80;;;9.20;95.80;;;;;;4998774;28;20306;-78
2021/05/22 02:25:59;;;;;;;9.60;3.63;;;9.10;95.90;;;;;;5004297;28;20207;-77
2021/05/22 02:28:29;;;;;;;3.70;3.50;;;9.10;96.00;;;;;;5008418;28;20267;-77
2021/05/22 02:30:55;;;;;;;3.40;3.10;;;9.10;96.00;;;;;;5046851;28;20617;-77
2021/05/22 02:33:22;;;;;;;3.50;3.20;;;9.10;96.20;;;;;;5047338;28;20179;-77
2021/05/22 02:35:52;;;;;;;3.10;2.87;;;9.10;96.30;;;;;;5048855;28;20298;-77
2021/05/22 02:38:28;;;;;;;6.17;3.57;;;9.10;96.30;;;;;;5053572;28;20214;-77
2021/05/22 02:40:57;;;;;;;3.33;3.13;;;9.10;96.20;;;;;;5049373;28;20207;-77
2021/05/22 02:43:25;;;;;;;3.43;3.13;;;9.10;96.40;;;;;;5049429;28;20187;-76
2021/05/22 02:45:52;;;;;;;2.90;2.70;;;9.10;96.30;;;;;;5047499;28;20262;-77
2021/05/22 02:48:20;;;;;;;5.37;2.40;;;9.10;96.40;;;;;;5051180;28;20179;-76
2021/05/22 02:50:49;;;;;;;2.63;2.53;;;9.10;96.20;;;;;;5054143;28;20212;-77
2021/05/22 02:53:18;;;;;;;4.00;3.63;;;9.10;96.10;;;;;;5061753;28;20191;-77
2021/05/22 02:55:47;;;;;;;4.67;2.70;;;9.10;96.30;;;;;;5065130;28;20180;-77
2021/05/22 02:58:14;;;;;;;3.60;3.43;;;9.10;96.40;;;;;;5051532;28;20653;-77
2021/05/22 03:00:41;;;;;;;3.80;2.87;;;9.10;96.40;;;;;;5054585;28;20877;-77
2021/05/22 03:03:06;;;;;;;2.60;2.43;;;9.10;96.40;;;;;;5048391;28;20180;-77
2021/05/22 03:05:33;;;;;;;3.33;3.03;;;9.00;96.40;;;;;;5056399;28;20184;-75
2021/05/22 03:07:59;;;;;;;2.93;2.73;;;9.00;96.30;;;;;;5054888;28;20187;-74
2021/05/22 03:10:26;;;;;;;2.43;2.23;;;9.00;96.30;;;;;;5048266;28;20180;-76
2021/05/22 03:12:52;;;;;;;2.33;2.23;;;9.00;96.20;;;;;;5044430;28;20265;-76
2021/05/22 03:15:18;;;;;;;2.60;2.50;;;9.00;96.20;;;;;;5045916;28;20631;-77
2021/05/22 03:17:43;;;;;;;3.23;2.70;;;9.00;96.20;;;;;;5046955;28;20212;-77
2021/05/22 03:20:09;;;;;;;3.63;2.77;;;9.00;96.20;;;;;;5046844;28;20183;-76
2021/05/22 03:22:35;;;;;;;3.13;2.80;;;9.00;96.30;;;;;;5037517;28;20794;-75
2021/05/22 03:25:02;;;;;;;2.93;2.73;;;9.00;96.30;;;;;;5047054;28;20176;-76
2021/05/22 03:27:29;;;;;;;3.70;3.50;;;9.00;96.30;;;;;;5047005;28;20171;-76
2021/05/22 03:29:56;;;;;;;3.17;2.97;;;9.00;96.40;;;;;;5047035;28;20913;-76
2021/05/22 03:32:21;;;;;;;2.73;2.53;;;9.00;96.40;;;;;;5045901;28;20252;-77
2021/05/22 03:34:47;;;;;;;3.33;3.13;;;9.10;96.50;;;;;;5040428;28;20363;-76
2021/05/22 03:37:13;;;;;;;2.80;2.60;;;9.10;96.60;;;;;;5048019;28;20219;-75
2021/05/22 03:39:39;;;;;;;3.63;3.43;;;9.10;96.60;;;;;;5046289;28;20183;-76
2021/05/22 03:42:05;;;;;;;2.80;2.60;;;9.10;96.70;;;;;;5050361;28;20255;-75
2021/05/22 03:44:31;;;;;;;3.00;2.80;;;9.10;96.60;;;;;;5050618;28;20297;-76
2021/05/22 03:46:56;;;;;;;2.67;2.57;;;9.10;96.90;;;;;;5050731;28;20184;-76
2021/05/22 03:49:22;;;;;;;6.90;3.73;;;9.10;97.10;;;;;;5047534;28;20203;-75
2021/05/22 03:51:48;;;;;;;3.43;3.13;;;9.10;97.10;;;;;;5057775;28;20665;-75
2021/05/22 03:54:14;;;;;;;3.93;2.50;;;9.10;97.20;;;;;;5050235;28;20587;-77
2021/05/22 03:56:40;;;;;;;2.97;2.80;;;9.10;97.20;;;;;;5049972;28;20243;-76
2021/05/22 03:59:05;;;;;;;3.07;2.87;;;9.10;97.40;;;;;;5050481;28;20182;-76
2021/05/22 04:01:31;;;;;;;2.70;2.50;;;9.20;97.40;;;;;;5045927;28;20263;-74
2021/05/22 04:03:57;;;;;;;1.70;1.70;;;9.30;97.30;;;;;;5045443;28;20192;-75
2021/05/22 04:06:23;;;;;;;2.50;2.40;;;9.30;97.20;;;;;;5051656;28;20175;-75
2021/05/22 04:08:48;;;;;;;2.80;2.20;;;9.40;97.20;;;;;;5044020;28;20180;-76
2021/05/22 04:11:14;;;;;;;2.57;2.37;;;9.50;97.20;;;;;;5050701;28;20263;-75
2021/05/22 04:13:40;;;;;;;2.67;2.47;;;9.60;97.10;;;;;;5048864;28;20184;-75
2021/05/22 04:16:05;;;;;;;3.40;3.10;;;9.70;96.90;;;;;;5050238;28;20218;-75
2021/05/22 04:18:31;;;;;;;3.07;2.87;;;9.70;96.90;;;;;;5050161;28;20268;-74
2021/05/22 04:20:57;;;;;;;4.17;3.40;;;9.80;96.60;;;;;;5049280;28;20184;-76
2021/05/22 04:23:22;;;;;;;3.93;3.60;;;9.90;96.60;;;;;;5055067;28;20189;-75
2021/05/22 04:25:50;;;;;;;7.17;2.90;;;10.00;96.60;;;;;;5050994;28;20206;-75
2021/05/22 04:28:16;;;;;;;3.67;3.23;;;10.10;96.30;;;;;;5050638;28;20266;-76
2021/05/22 04:30:42;;;;;;;3.53;3.30;;;10.20;96.30;;;;;;5046406;28;20374;-75
2021/05/22 04:33:08;;;;;;;6.80;3.70;;;10.30;96.10;;;;;;5049547;28;20180;-76
2021/05/22 04:35:34;;;;;;;4.13;3.73;;;10.40;95.80;;;;;;5049403;28;20188;-76
2021/05/22 04:37:59;;;;;;;3.77;3.53;;;10.50;95.60;;;;;;5048207;28;20634;-76
2021/05/22 04:40:25;;;;;;;3.73;3.43;;;10.60;95.50;;;;;;5049202;28;20740;-78
2021/05/22 04:42:51;;;;;;;4.18;3.88;;;10.70;95.40;;;;;;5049554;28;20665;-74
2021/05/22 04:45:17;;;;;;;3.70;3.40;;;10.80;95.30;;;;;;5049005;28;20184;-77
2021/05/22 04:47:43;;;;;;;3.28;3.03;;;10.90;95.20;;;;;;5053754;28;20196;-78
2021/05/22 04:50:09;;;;;;;4.50;3.80;;;11.00;94.90;;;;;;5047282;28;20183;-75
2021/05/22 04:52:35;;;;;;;4.95;3.47;;;11.10;94.70;;;;;;5046280;28;20241;-77
2021/05/22 04:55:02;;;;;;;8.50;3.90;;;11.20;94.40;;;;;;5048866;28;20691;-75
2021/05/22 04:57:28;;;;;;;3.67;3.45;;;11.30;94.10;;;;;;5044572;28;20715;-76
2021/05/22 04:59:53;;;;;;;3.90;3.63;;;11.40;94.10;;;;;;5048916;28;20192;-75
2021/05/22 05:02:19;;;;;;;3.83;3.63;;;11.50;93.90;;;;;;5053065;28;20194;-76
2021/05/22 05:04:48;;;;;;;4.88;3.97;;;11.50;93.70;;;;;;5049183;28;20191;-75
2021/05/22 05:07:13;;;;;;;3.60;3.30;;;11.60;93.60;;;;;;5053030;28;20191;-77
2021/05/22 05:09:40;;;;;;;3.38;3.20;;;11.70;93.60;;;;;;5048860;28;20721;-76
2021/05/22 05:12:07;;;;;;;3.78;3.50;;;11.70;93.30;;;;;;5046866;28;20180;-76
2021/05/22 05:14:33;;;;;;;4.20;3.85;;;11.80;92.90;;;;;;5050018;28;20227;-75
2021/05/22 05:16:59;;;;;;;3.05;2.90;;;11.80;92.80;;;;;;5055751;28;20246;-75
2021/05/22 05:19:28;;;;;;;4.35;3.95;;;11.90;92.40;;;;;;5048234;28;20258;-78
2021/05/22 05:21:54;;;;;;;2.92;2.72;;;12.00;92.40;;;;;;5047430;28;20175;-78
2021/05/22 05:24:20;;;;;;;3.42;3.22;;;12.10;92.20;;;;;;5047346;28;20258;-75
2021/05/22 05:26:46;;;;;;;3.83;3.50;;;12.20;91.90;;;;;;5048606;28;20279;-76
2021/05/22 05:29:11;;;;;;;3.20;3.00;;;12.30;91.50;;;;;;5047457;28;20755;-76
2021/05/22 05:31:37;;;;;;;3.13;2.92;;;12.30;91.10;;;;;;5053881;28;20253;-76
2021/05/22 05:34:03;;;;;;;3.92;2.85;;;12.40;90.50;;;;;;5048837;28;20211;-76
2021/05/22 05:36:29;;;;;;;3.25;2.97;;;12.40;90.70;;;;;;5070927;28;20314;-77
2021/05/22 05:38:55;;;;;;;2.85;2.17;;;12.50;90.10;;;;;;5067362;28;20188;-75
2021/05/22 05:41:21;;;;;;;6.15;3.45;;;12.50;89.70;;;;;;5063035;28;20175;-76
2021/05/22 05:43:47;;;;;;;3.75;2.97;;;12.50;89.00;;;;;;5064752;28;20207;-74
2021/05/22 05:46:15;;;;;;;2.70;2.60;;;12.60;89.30;;;;;;5054910;28;20191;-75
2021/05/22 05:48:41;;;;;;;2.63;2.53;;;12.70;89.50;;;;;;5064490;28;20687;-76
2021/05/22 05:51:06;;;;;;;2.65;2.53;;;12.70;89.60;;;;;;5064440;28;20171;-77
2021/05/22 05:53:32;;;;;;;2.60;2.50;;;12.80;88.80;;;;;;5069504;28;20195;-77
2021/05/22 05:55:58;;;;;;;14.48;2.60;;;12.90;88.30;;;;;;5066538;28;20673;-76
2021/05/22 05:58:23;;;;;;;2.50;2.40;;;12.90;87.80;;;;;;5065848;28;20202;-77
2021/05/22 06:00:49;;;;;;;3.72;2.03;;;12.90;88.10;;;;;;5067959;28;20731;-77
2021/05/22 06:03:28;;;;;;;2.00;1.90;;;13.00;88.20;;;;;;5062792;28;20207;-77
2021/05/22 06:05:54;;;;;;;3.00;2.72;;;13.00;88.10;;;;;;5065080;28;20181;-77
2021/05/22 06:08:21;;;;;;;2.50;2.30;;;13.10;87.20;;;;;;5065837;28;20262;-75
2021/05/22 06:10:48;;;;;;;3.50;2.03;;;13.10;87.30;;;;;;5062454;28;20218;-76
2021/05/22 06:13:28;;;;;;;2.13;2.03;;;13.10;87.80;;;;;;5067802;28;20190;-77
2021/05/22 06:16:04;;;;;;;5.57;2.00;;;13.20;87.80;;;;;;5050018;28;20187;-76
2021/05/22 06:18:35;;;;;;;2.33;2.17;;;13.20;88.30;;;;;;5044661;28;20654;-75
2021/05/22 06:21:02;;;;;;;10.20;2.55;;;13.30;87.70;;;;;;5047132;28;20183;-74
2021/05/22 06:23:28;;;;;;;2.83;2.58;;;13.40;87.80;;;;;;5047931;28;20191;-74
2021/05/22 06:25:54;;;;;;;2.08;1.88;;;13.50;88.00;;;;;;5053045;28;20179;-75
2021/05/22 06:28:20;;;;;;;2.63;2.33;;;13.70;87.80;;;;;;5048374;28;20194;-74
2021/05/22 06:30:47;;;;;;;2.15;2.05;;;13.90;87.60;;;;;;5054645;28;20175;-76
2021/05/22 06:33:12;;;;;;;2.33;2.10;;;14.00;87.20;;;;;;5046687;28;20175;-75
2021/05/22 06:35:38;;;;;;;3.00;2.47;;;14.30;87.00;;;;;;5044902;28;20633;-75
2021/05/22 06:38:04;;;;;;;2.63;2.38;;;14.40;86.10;;;;;;5045551;28;20180;-74
2021/05/22 06:40:29;;;;;;;2.17;2.08;;;14.50;85.60;;;;;;5043338;28;20191;-76
2021/05/22 06:42:55;;;;;;;2.25;2.15;;;14.60;85.40;;;;;;5045871;28;20214;-75
2021/05/22 06:45:24;;;;;;;2.40;2.30;;;14.80;84.60;;;;;;5046321;28;20179;-76
2021/05/22 06:47:49;;;;;;;1.98;1.92;;;14.90;84.60;;;;;;5049760;28;20180;-74
2021/05/22 06:50:16;;;;;;;2.33;2.13;;;15.10;84.60;;;;;;5046207;28;20249;-78
2021/05/22 06:52:42;;;;;;;2.40;2.30;;;15.30;84.10;;;;;;5046378;28;20187;-77
2021/05/22 06:55:08;;;;;;;2.28;2.17;;;15.50;83.90;;;;;;5049313;28;20664;-78
2021/05/22 06:57:34;;;;;;;2.75;2.65;;;15.60;83.40;;;;;;5047311;28;20576;-78
2021/05/22 07:00:00;;;;;;;3.45;2.83;;;15.80;82.40;;;;;;5047487;28;20180;-76
2021/05/22 07:02:27;;;;;;;3.35;2.80;;;15.90;81.70;;;;;;5045581;28;20573;-76
2021/05/22 07:04:53;;;;;;;2.42;2.35;;;16.00;81.90;;;;;;5045878;28;20190;-72
2021/05/22 07:07:18;;;;;;;2.67;2.47;;;16.10;81.50;;;;;;5043378;28;20199;-75
2021/05/22 07:09:44;;;;;;;5.80;2.85;;;16.20;81.50;;;;;;5045751;28;20853;-73
2021/05/22 07:12:10;;;;;;;3.33;3.15;;;16.40;82.00;;;;;;5044978;28;20184;-75
2021/05/22 07:14:36;;;;;;;3.00;2.78;;;16.50;81.00;;;;;;5058470;28;20645;-75
2021/05/22 07:17:02;;;;;;;3.13;2.65;;;16.60;80.90;;;;;;5048827;28;20691;-75
2021/05/22 07:19:28;;;;;;;2.88;2.58;;;16.60;77.60;;;;;;5052975;28;20190;-78
2021/05/22 07:21:55;;;;;;;2.40;2.30;;;16.70;78.70;;;;;;5049362;28;20620;-73
2021/05/22 07:24:21;;;;;;;3.35;3.10;;;16.80;79.50;;;;;;5042240;28;20271;-75
2021/05/22 07:26:48;;;;;;;3.97;3.08;;;16.90;79.60;;;;;;5051669;28;20201;-78
2021/05/22 07:29:14;;;;;;;3.33;3.13;;;17.10;79.70;;;;;;5056012;28;20194;-79
2021/05/22 07:31:41;;;;;;;7.07;3.63;;;17.20;79.50;;;;;;5050968;28;20580;-76
2021/05/22 07:34:10;;;;;;;4.20;3.08;;;17.30;79.50;;;;;;5056243;28;20179;-76
2021/05/22 07:36:38;;;;;;;7.35;3.50;;;17.30;78.50;;;;;;5046380;28;20219;-79
2021/05/22 07:39:06;;;;;;;3.05;2.95;;;17.30;79.60;;;;;;5041715;28;20186;-77
2021/05/22 07:41:32;;;;;;;3.33;3.03;;;17.40;79.40;;;;;;5046112;28;20589;-74
2021/05/22 07:44:01;;;;;;;2.97;2.78;;;17.50;79.00;;;;;;5046796;28;20189;-74
2021/05/22 07:46:26;;;;;;;2.78;2.67;;;17.50;78.60;;;;;;5044407;28;20219;-74
2021/05/22 07:48:52;;;;;;;2.83;2.60;;;17.60;78.30;;;;;;5043775;28;20204;-74
2021/05/22 07:51:18;;;;;;;2.38;2.28;;;17.60;78.80;;;;;;5044540;28;20191;-73
2021/05/22 07:53:44;;;;;;;2.72;2.58;;;17.70;78.20;;;;;;5044866;28;20664;-73
2021/05/22 07:56:10;;;;;;;2.70;2.63;;;17.90;78.20;;;;;;5043279;28;20706;-73
2021/05/22 07:58:35;;;;;;;3.60;3.03;;;18.00;78.30;;;;;;5043506;28;20214;-73
2021/05/22 08:01:01;;;;;;;2.83;2.70;;;18.10;77.80;;;;;;5044640;28;20180;-72
2021/05/22 08:03:27;;;;;;;3.28;3.13;;;18.20;77.60;;;;;;5046628;28;20270;-74
2021/05/22 08:05:52;;;;;;;2.95;2.85;;;18.20;77.60;;;;;;5049099;28;20565;-74
2021/05/22 08:08:18;;;;;;;3.08;2.67;;;18.20;76.40;;;;;;5044444;28;20271;-74
2021/05/22 08:10:44;;;;;;;2.63;2.42;;;18.20;76.10;;;;;;5043094;28;20176;-74
2021/05/22 08:13:10;;;;;;;5.97;3.05;;;18.10;76.60;;;;;;5052437;28;20187;-74
2021/05/22 08:15:37;;;;;;;2.65;2.50;;;18.10;76.80;;;;;;5048838;28;20713;-74
2021/05/22 08:18:02;;;;;;;2.90;2.70;;;18.10;76.50;;;;;;5045790;28;20223;-74
2021/05/22 08:20:28;;;;;;;2.63;2.42;;;18.10;76.10;;;;;;5048099;28;20191;-73
2021/05/22 08:22:54;;;;;;;3.70;2.97;;;18.10;76.10;;;;;;5048214;28;20281;-73
2021/05/22 08:25:20;;;;;;;3.08;2.63;;;18.10;76.60;;;;;;5044077;28;20262;-75
2021/05/22 08:27:46;;;;;;;3.20;2.38;;;18.10;76.00;;;;;;5049029;28;20733;-74
2021/05/22 08:30:13;;;;;;;4.78;3.10;;;18.20;75.90;;;;;;5057549;28;20704;-78
2021/05/22 08:32:42;;;;;;;2.40;2.30;;;18.30;76.80;;;;;;5060384;28;20179;-78
2021/05/22 08:35:08;;;;;;;3.35;3.15;;;18.50;76.40;;;;;;5060780;28;20176;-77
2021/05/22 08:37:35;;;;;;;4.22;2.85;;;18.70;75.30;;;;;;5056720;28;20215;-76
2021/05/22 08:40:00;;;;;;;2.40;2.25;;;18.90;75.40;;;;;;5048964;28;20184;-75
2021/05/22 08:42:29;;;;;;;2.53;2.50;;;19.20;74.00;;;;;;5050083;28;20321;-78
2021/05/22 08:45:04;;;;;;;3.22;3.03;;;19.40;73.80;;;;;;5036704;28;20241;-73
2021/05/22 08:47:29;;;;;;;2.38;2.30;;;19.70;72.90;;;;;;5048776;28;20183;-73
2021/05/22 08:49:55;;;;;;;5.15;2.70;;;19.90;72.80;;;;;;5048201;28;20183;-74
2021/05/22 08:52:22;;;;;;;2.50;2.40;;;20.10;73.20;;;;;;5047370;28;20598;-74
2021/05/22 08:54:49;;;;;;;5.50;2.53;;;20.30;72.00;;;;;;5047769;28;20182;-74
2021/05/22 08:57:33;;;;;;;2.67;2.47;;;20.50;71.20;;;;;;5046757;28;20204;-74
2021/05/22 08:59:59;;;;;;;2.72;2.50;;;20.70;70.70;;;;;;5046378;28;20224;-72
2021/05/22 09:02:27;;;;;;;2.45;2.35;;;20.90;69.70;;;;;;5048520;28;20179;-73
2021/05/22 09:05:37;;;;;;;5.03;2.85;;;21.00;69.00;;;;;;5048537;28;20562;-73
2021/05/22 09:08:11;;;;;;;1.95;1.85;;;21.10;66.90;;;;;;5046310;28;20227;-72
2021/05/22 09:10:40;;;;;;;2.00;1.90;;;21.10;69.40;;;;;;5048446;28;20184;-72
2021/05/22 09:13:09;;;;;;;1.83;1.73;;;21.10;69.50;;;;;;5048226;28;20176;-72
2021/05/22 09:15:37;;;;;;;1.63;1.63;;;21.10;69.10;;;;;;5047807;28;20195;-73
2021/05/22 09:18:03;;;;;;;1.77;1.77;;;21.20;69.40;;;;;;5052302;28;20212;-72
2021/05/22 09:20:37;;;;;;;1.85;1.80;;;21.40;69.00;;;;;;5048169;28;20230;-72
2021/05/22 09:23:14;;;;;;;2.75;2.55;;;21.60;68.00;;;;;;5040813;28;20678;-76
2021/05/22 09:25:47;;;;;;;2.83;2.50;;;21.90;68.00;;;;;;5046950;28;20672;-74
2021/05/22 09:28:14;;;;;;;3.60;2.25;;;22.10;66.60;;;;;;5055981;28;20554;-74
2021/05/22 09:30:41;;;;;;;1.77;1.77;;;22.20;64.80;;;;;;5048362;28;20175;-75
2021/05/22 09:33:16;;;;;;;2.45;2.35;;;22.30;66.00;;;;;;5050117;28;20189;-75
2021/05/22 09:35:49;;;;;;;1.58;1.58;;;22.50;66.40;;;;;;5049704;28;20183;-75
2021/05/22 09:38:15;;;;;;;5.85;2.20;;;22.60;64.60;;;;;;5044087;28;20195;-75
2021/05/22 09:40:42;;;;;;;1.95;1.95;;;22.80;64.70;;;;;;5052821;28;20183;-74
2021/05/22 09:43:09;;;;;;;2.35;2.08;;;22.90;65.40;;;;;;5049793;28;20171;-76
2021/05/22 09:45:54;;;;;;;2.38;2.28;;;23.10;65.80;;;;;;5048085;28;20209;-75
2021/05/22 09:48:23;;;;;;;2.13;2.03;;;23.30;65.00;;;;;;5045557;28;20187;-76
2021/05/22 09:50:54;;;;;;;2.15;1.90;;;23.40;64.50;;;;;;5046399;28;20180;-75
2021/05/22 09:53:21;;;;;;;1.70;1.65;;;23.50;64.30;;;;;;5047963;28;20183;-75
2021/05/22 09:56:20;;;;;;;2.60;1.90;;;23.50;65.10;;;;;;5053365;28;20188;-75
2021/05/22 09:58:53;;;;;;;1.77;1.77;;;23.50;63.80;;;;;;5047875;28;20190;-75
2021/05/22 10:01:27;;;;;;;1.58;1.58;;;23.50;63.80;;;;;;5049556;28;20260;-74
2021/05/22 10:03:53;;;;;;;1.73;1.63;;;23.50;63.90;;;;;;5046459;28;20175;-74
2021/05/22 10:06:19;;;;;;;1.50;1.40;;;23.40;62.10;;;;;;5047222;28;20672;-74
2021/05/22 10:08:46;;;;;;;1.42;1.40;;;23.50;62.70;;;;;;5044005;28;20210;-75
2021/05/22 10:11:12;;;;;;;2.15;1.50;;;23.60;62.90;;;;;;5047857;28;20176;-74
2021/05/22 10:13:41;;;;;;;1.90;1.80;;;23.80;60.20;;;;;;5051298;28;20191;-74
2021/05/22 10:16:07;;;;;;;1.40;1.40;;;24.10;60.00;;;;;;5054033;28;20215;-74
2021/05/22 10:18:34;;;;;;;1.23;1.23;;;24.40;58.60;;;;;;5046466;28;20591;-75
2021/05/22 10:21:03;;;;;;;1.58;1.58;;;24.80;59.80;;;;;;5047376;28;20180;-75
2021/05/22 10:23:29;;;;;;;2.05;1.30;;;25.40;59.10;;;;;;5046772;28;20183;-75
2021/05/22 10:25:57;;;;;;;2.75;1.50;;;26.00;57.80;;;;;;5047343;28;20176;-74
2021/05/22 10:28:23;;;;;;;3.70;1.67;;;26.60;58.80;;;;;;5047671;28;20179;-75
2021/05/22 10:30:50;;;;;;;2.55;1.65;;;27.30;56.30;;;;;;5047450;28;20570;-76
2021/05/22 10:33:17;;;;;;;3.50;1.40;;;28.20;55.10;;;;;;5047468;28;20606;-75
2021/05/22 10:35:46;;;;;;;1.20;1.20;;;28.80;55.30;;;;;;5047293;28;20179;-75
2021/05/22 10:38:34;;;;;;;1.48;1.48;;;29.20;54.60;;;;;;5045974;28;20270;-75
2021/05/22 10:41:07;;;;;;;1.52;1.42;;;29.70;52.80;;;;;;5047049;28;20567;-75
2021/05/22 10:43:43;;;;;;;2.70;1.38;;;30.20;53.60;;;;;;5054028;28;20267;-76
2021/05/22 10:46:09;;;;;;;3.30;1.30;;;30.90;52.20;;;;;;5051592;28;20264;-75
2021/05/22 10:48:35;;;;;;;1.40;1.40;;;31.30;50.80;;;;;;5051109;28;20208;-75
2021/05/22 10:51:01;;;;;;;1.75;1.23;;;31.60;51.30;;;;;;5050875;28;20211;-74
2021/05/22 10:53:36;;;;;;;1.20;1.20;;;32.00;50.50;;;;;;5049661;28;20182;-75
2021/05/22 10:56:02;;;;;;;1.55;1.10;;;32.50;49.70;;;;;;5073829;28;20251;-74
2021/05/22 10:58:28;;;;;;;2.13;1.35;;;32.90;49.90;;;;;;5051711;28;20293;-73
2021/05/22 11:01:22;;;;;;;0.90;0.90;;;33.30;48.80;;;;;;5052444;28;20241;-72
2021/05/22 11:04:22;;;;;;;1.27;1.27;;;33.60;47.40;;;;;;5045830;28;20210;-75
2021/05/22 11:06:51;;;;;;;1.15;1.15;;;33.80;46.90;;;;;;5054184;28;20190;-75
2021/05/22 11:09:29;;;;;;;1.50;1.40;;;33.80;48.30;;;;;;5048478;28;20171;-76
2021/05/22 11:11:57;;;;;;;0.90;0.90;;;33.80;48.20;;;;;;5052733;28;20175;-73
2021/05/22 11:14:36;;;;;;;1.23;1.23;;;33.90;47.60;;;;;;5050651;28;20308;-78
2021/05/22 11:17:29;;;;;;;1.20;1.20;;;33.90;46.60;;;;;;5054149;28;20590;-79
2021/05/22 11:19:58;;;;;;;1.63;0.95;;;33.90;47.40;;;;;;5052177;28;20175;-79
2021/05/22 11:22:25;;;;;;;2.25;1.17;;;34.10;48.40;;;;;;5053626;28;20191;-76
2021/05/22 11:25:04;;;;;;;1.23;1.15;;;34.50;47.80;;;;;;5054436;28;20179;-75
2021/05/22 11:27:48;;;;;;;0.90;0.90;;;35.00;45.30;;;;;;5049872;28;20183;-75
2021/05/22 11:30:20;;;;;;;3.10;1.30;;;35.20;45.70;;;;;;5051211;28;20903;-77
2021/05/22 11:32:48;;;;;;;0.98;0.98;;;35.10;45.30;;;;;;5051164;28;20183;-76
2021/05/22 11:35:30;;;;;;;2.60;1.13;;;35.00;45.40;;;;;;5049460;28;20187;-73
2021/05/22 11:38:21;;;;;;;4.10;0.90;;;34.70;43.80;;;;;;5055432;28;20206;-74
2021/05/22 11:40:51;;;;;;;1.42;0.90;;;34.60;47.10;;;;;;5049010;28;20175;-76
2021/05/22 11:43:18;;;;;;;0.80;0.80;;;34.90;46.70;;;;;;5050632;28;20175;-72
2021/05/22 11:45:53;;;;;;;1.85;1.00;;;35.00;44.10;;;;;;5049620;28;20241;-72
2021/05/22 11:48:32;;;;;;;1.38;1.17;;;34.40;44.10;;;;;;5050284;28;20253;-72
2021/05/22 11:50:57;;;;;;;1.75;1.02;;;33.50;44.70;;;;;;5047413;28;20187;-73
2021/05/22 11:53:29;;;;;;;1.00;1.00;;;33.10;45.30;;;;;;5047874;28;20190;-73
2021/05/22 11:56:03;;;;;;;1.20;0.90;;;33.20;47.70;;;;;;5048205;28;20202;-75
2021/05/22 11:58:30;;;;;;;1.13;1.13;;;33.70;47.70;;;;;;5049319;28;20248;-74
2021/05/22 12:01:08;;;;;;;0.90;0.90;;;34.20;44.60;;;;;;5049035;28;20187;-73
2021/05/22 12:03:36;;;;;;;1.02;0.90;;;34.70;44.40;;;;;;5049325;28;20171;-73
2021/05/22 12:06:03;;;;;;;1.00;1.00;;;35.00;43.90;;;;;;5049447;28;20558;-74
2021/05/22 12:08:31;;;;;;;0.88;0.88;;;35.50;46.00;;;;;;5048722;28;20179;-74
2021/05/22 12:10:57;;;;;;;2.15;1.17;;;35.90;43.70;;;;;;5048993;28;20186;-74
2021/05/22 12:13:24;;;;;;;1.15;0.70;;;36.30;43.60;;;;;;5048903;28;20179;-74
2021/05/22 12:15:50;;;;;;;2.30;0.60;;;36.50;42.80;;;;;;5048384;28;20235;-74
2021/05/22 12:18:16;;;;;;;2.80;0.90;;;36.50;43.20;;;;;;5048820;28;20976;-74
2021/05/22 12:20:54;;;;;;;0.68;0.68;;;36.80;45.20;;;;;;5048548;28;20339;-73
2021/05/22 12:23:33;;;;;;;0.88;0.88;;;37.10;41.70;;;;;;5046175;28;20179;-75
2021/05/22 12:26:00;;;;;;;0.90;0.90;;;37.30;41.00;;;;;;5048683;28;20679;-74
2021/05/22 12:28:26;;;;;;;1.10;0.82;;;37.00;43.00;;;;;;5047811;28;20174;-72
2021/05/22 12:30:59;;;;;;;0.98;0.98;;;36.80;43.40;;;;;;5046810;28;20187;-73
2021/05/22 12:33:26;;;;;;;0.65;0.65;;;36.80;42.40;;;;;;5047109;28;20182;-73
2021/05/22 12:36:09;;;;;;;0.88;0.88;;;36.70;42.00;;;;;;5049368;28;20183;-73
2021/05/22 12:38:42;;;;;;;1.30;1.00;;;36.70;42.80;;;;;;5048009;28;20179;-73
2021/05/22 12:41:09;;;;;;;0.75;0.75;;;36.80;43.80;;;;;;5046987;28;20270;-74
2021/05/22 12:43:48;;;;;;;0.90;0.90;;;36.90;43.60;;;;;;5046855;28;20186;-73
2021/05/22 12:46:50;;;;;;;1.10;1.10;;;37.20;43.00;;;;;;5049862;28;20745;-72
2021/05/22 12:49:20;;;;;;;0.60;0.60;;;37.30;42.80;;;;;;5049627;28;20222;-73
2021/05/22 12:52:10;;;;;;;0.45;0.45;;;37.10;43.00;;;;;;5055148;28;20184;-72
2021/05/22 12:54:36;;;;;;;0.47;0.40;;;36.80;39.70;;;;;;5040506;28;20577;-71
2021/05/22 12:57:17;;;;;;;0.40;0.40;;;36.20;41.40;;;;;;5049452;28;20211;-71